Flugplatz Lahr

Bericht für EDTL

vom 01.12. um 09:50 UTC

Wind 17 kt aus 190° in Böen 28 kt

Sichtweite 10 km oder mehr

aufgebrochene Bewölkung in 3900 ft

Temperatur 9.0°C

Taupunkt 5.0°C

Luftfeuchtigkeit 76%

Luftdruck 1004 hPa

EDTL 010950Z 19017G28KT 9999 BKN039 09/05 Q1004

Prognose für EDTL

vom 01.12. um 08:00 UTC

Zwischen 09:00 UTC und 18:00 UTC

Wind 15 kt aus 190° in Böen 25 kt

Sichtweite 10 km oder mehr

aufgebrochene Bewölkung in 3000 ft


Zwischen 09:00 und 12:00 UTC übergehend zu

Wind 20 kt aus 200° in Böen 35 kt

Sichtweite 10 km oder mehr

aufgebrochene Bewölkung in 3000 ft

TAF EDTL 010800Z 0109/0118 19015G25KT 9999 BKN030 BECMG 0109/0112 20020G35KT
Impressum